sensor_id;sensor_type;location;lat;lon;timestamp;temperature;humidity
78490;DHT22;67776;52.012;4.736;2023-05-15T00:01:27;11.66;84.19
78490;DHT22;67776;52.012;4.736;2023-05-15T00:03:53;11.71;83.96
78490;DHT22;67776;52.012;4.736;2023-05-15T00:06:19;11.66;84.56
78490;DHT22;67776;52.012;4.736;2023-05-15T00:08:44;11.62;85.34
78490;DHT22;67776;52.012;4.736;2023-05-15T00:11:10;11.63;84.90
78490;DHT22;67776;52.012;4.736;2023-05-15T00:13:35;11.60;84.79
78490;DHT22;67776;52.012;4.736;2023-05-15T00:16:06;11.56;84.98
78490;DHT22;67776;52.012;4.736;2023-05-15T00:18:31;11.52;85.07
78490;DHT22;67776;52.012;4.736;2023-05-15T00:20:57;11.56;85.08
78490;DHT22;67776;52.012;4.736;2023-05-15T00:23:22;11.55;85.15
78490;DHT22;67776;52.012;4.736;2023-05-15T00:25:48;11.53;85.25
78490;DHT22;67776;52.012;4.736;2023-05-15T00:28:13;11.55;85.21
78490;DHT22;67776;52.012;4.736;2023-05-15T00:30:38;11.52;85.35
78490;DHT22;67776;52.012;4.736;2023-05-15T00:33:04;11.49;85.49
78490;DHT22;67776;52.012;4.736;2023-05-15T00:35:30;11.52;85.22
78490;DHT22;67776;52.012;4.736;2023-05-15T00:37:56;11.46;85.44
78490;DHT22;67776;52.012;4.736;2023-05-15T00:40:22;11.46;85.54
78490;DHT22;67776;52.012;4.736;2023-05-15T00:42:48;11.43;86.09
78490;DHT22;67776;52.012;4.736;2023-05-15T00:45:14;11.42;85.65
78490;DHT22;67776;52.012;4.736;2023-05-15T00:47:41;11.49;85.51
78490;DHT22;67776;52.012;4.736;2023-05-15T00:50:08;11.33;86.01
78490;DHT22;67776;52.012;4.736;2023-05-15T00:52:35;11.28;86.75
78490;DHT22;67776;52.012;4.736;2023-05-15T00:55:00;11.32;86.20
78490;DHT22;67776;52.012;4.736;2023-05-15T00:57:26;11.31;86.14
78490;DHT22;67776;52.012;4.736;2023-05-15T00:59:53;11.25;86.40
78490;DHT22;67776;52.012;4.736;2023-05-15T01:02:19;11.32;86.13
78490;DHT22;67776;52.012;4.736;2023-05-15T01:04:45;11.26;86.36
78490;DHT22;67776;52.012;4.736;2023-05-15T01:07:11;11.23;86.48
78490;DHT22;67776;52.012;4.736;2023-05-15T01:09:37;11.21;86.24
78490;DHT22;67776;52.012;4.736;2023-05-15T01:12:06;11.15;86.86
78490;DHT22;67776;52.012;4.736;2023-05-15T01:14:32;11.12;87.07
78490;DHT22;67776;52.012;4.736;2023-05-15T01:16:57;11.11;86.89
78490;DHT22;67776;52.012;4.736;2023-05-15T01:19:22;11.12;86.90
78490;DHT22;67776;52.012;4.736;2023-05-15T01:27:53;11.03;87.08
78490;DHT22;67776;52.012;4.736;2023-05-15T01:30:27;11.07;86.73
78490;DHT22;67776;52.012;4.736;2023-05-15T01:33:01;11.04;87.06
78490;DHT22;67776;52.012;4.736;2023-05-15T01:35:31;11.07;86.46
78490;DHT22;67776;52.012;4.736;2023-05-15T01:38:18;11.01;86.64
78490;DHT22;67776;52.012;4.736;2023-05-15T01:40:46;10.97;87.06
78490;DHT22;67776;52.012;4.736;2023-05-15T01:43:17;11.01;86.50
78490;DHT22;67776;52.012;4.736;2023-05-15T01:45:45;10.98;86.70
78490;DHT22;67776;52.012;4.736;2023-05-15T01:48:12;10.93;86.73
78490;DHT22;67776;52.012;4.736;2023-05-15T01:50:39;10.84;87.15
78490;DHT22;67776;52.012;4.736;2023-05-15T01:53:08;10.84;86.73
78490;DHT22;67776;52.012;4.736;2023-05-15T01:55:35;10.83;86.92
78490;DHT22;67776;52.012;4.736;2023-05-15T01:58:01;10.87;86.76
78490;DHT22;67776;52.012;4.736;2023-05-15T02:00:28;10.81;87.03
78490;DHT22;67776;52.012;4.736;2023-05-15T02:02:54;10.76;87.03
78490;DHT22;67776;52.012;4.736;2023-05-15T02:05:20;10.80;87.04
78490;DHT22;67776;52.012;4.736;2023-05-15T02:07:47;10.76;87.57
78490;DHT22;67776;52.012;4.736;2023-05-15T02:10:13;10.76;87.10
78490;DHT22;67776;52.012;4.736;2023-05-15T02:12:40;10.74;87.24
78490;DHT22;67776;52.012;4.736;2023-05-15T02:15:08;10.77;87.10
78490;DHT22;67776;52.012;4.736;2023-05-15T02:17:34;10.70;87.17
78490;DHT22;67776;52.012;4.736;2023-05-15T02:19:59;10.71;87.22
78490;DHT22;67776;52.012;4.736;2023-05-15T02:22:24;10.67;87.68
78490;DHT22;67776;52.012;4.736;2023-05-15T02:24:49;10.70;86.90
78490;DHT22;67776;52.012;4.736;2023-05-15T02:27:23;10.64;87.00
78490;DHT22;67776;52.012;4.736;2023-05-15T02:35:11;10.66;87.19
78490;DHT22;67776;52.012;4.736;2023-05-15T02:37:38;10.63;87.08
78490;DHT22;67776;52.012;4.736;2023-05-15T02:40:10;10.63;86.91
78490;DHT22;67776;52.012;4.736;2023-05-15T02:42:36;10.64;87.08
78490;DHT22;67776;52.012;4.736;2023-05-15T02:45:03;10.60;87.31
78490;DHT22;67776;52.012;4.736;2023-05-15T02:47:31;10.56;87.13
78490;DHT22;67776;52.012;4.736;2023-05-15T02:49:58;10.53;87.18
78490;DHT22;67776;52.012;4.736;2023-05-15T02:52:23;10.55;87.23
78490;DHT22;67776;52.012;4.736;2023-05-15T02:54:49;10.55;87.22
78490;DHT22;67776;52.012;4.736;2023-05-15T02:57:14;10.53;87.08
78490;DHT22;67776;52.012;4.736;2023-05-15T02:59:40;10.48;86.95
78490;DHT22;67776;52.012;4.736;2023-05-15T03:02:05;10.40;87.10
78490;DHT22;67776;52.012;4.736;2023-05-15T03:04:31;10.43;87.12
78490;DHT22;67776;52.012;4.736;2023-05-15T03:06:56;10.39;87.56
78490;DHT22;67776;52.012;4.736;2023-05-15T03:09:21;10.39;87.48
78490;DHT22;67776;52.012;4.736;2023-05-15T03:11:46;10.39;87.38
78490;DHT22;67776;52.012;4.736;2023-05-15T03:14:12;10.38;87.30
78490;DHT22;67776;52.012;4.736;2023-05-15T03:16:37;10.36;87.46
78490;DHT22;67776;52.012;4.736;2023-05-15T03:19:03;10.31;87.59
78490;DHT22;67776;52.012;4.736;2023-05-15T03:21:29;10.35;87.94
78490;DHT22;67776;52.012;4.736;2023-05-15T03:23:54;10.36;87.43
78490;DHT22;67776;52.012;4.736;2023-05-15T03:26:20;10.28;87.70
78490;DHT22;67776;52.012;4.736;2023-05-15T03:28:46;10.29;87.76
78490;DHT22;67776;52.012;4.736;2023-05-15T03:31:11;10.23;88.03
78490;DHT22;67776;52.012;4.736;2023-05-15T03:33:38;10.23;88.27
78490;DHT22;67776;52.012;4.736;2023-05-15T03:36:04;10.26;88.21
78490;DHT22;67776;52.012;4.736;2023-05-15T03:38:29;10.29;88.15
78490;DHT22;67776;52.012;4.736;2023-05-15T03:40:55;10.26;88.47
78490;DHT22;67776;52.012;4.736;2023-05-15T03:43:20;10.28;88.60
78490;DHT22;67776;52.012;4.736;2023-05-15T03:45:45;10.28;88.93
78490;DHT22;67776;52.012;4.736;2023-05-15T03:48:11;10.26;89.46
78490;DHT22;67776;52.012;4.736;2023-05-15T03:50:36;10.31;88.64
78490;DHT22;67776;52.012;4.736;2023-05-15T03:53:01;10.35;88.50
78490;DHT22;67776;52.012;4.736;2023-05-15T03:55:27;10.31;89.07
78490;DHT22;67776;52.012;4.736;2023-05-15T03:57:52;10.36;88.96
78490;DHT22;67776;52.012;4.736;2023-05-15T04:00:18;10.36;89.29
78490;DHT22;67776;52.012;4.736;2023-05-15T04:02:43;10.43;89.76
78490;DHT22;67776;52.012;4.736;2023-05-15T04:05:09;10.46;89.80
78490;DHT22;67776;52.012;4.736;2023-05-15T04:07:35;10.48;89.19
78490;DHT22;67776;52.012;4.736;2023-05-15T04:10:01;10.52;88.63
78490;DHT22;67776;52.012;4.736;2023-05-15T04:12:27;10.48;89.74
78490;DHT22;67776;52.012;4.736;2023-05-15T04:14:58;10.52;88.02
78490;DHT22;67776;52.012;4.736;2023-05-15T04:17:23;10.59;87.87
78490;DHT22;67776;52.012;4.736;2023-05-15T04:19:48;10.55;88.63
78490;DHT22;67776;52.012;4.736;2023-05-15T04:22:14;10.61;89.09
78490;DHT22;67776;52.012;4.736;2023-05-15T04:24:39;10.61;87.95
78490;DHT22;67776;52.012;4.736;2023-05-15T04:27:04;10.64;88.06
78490;DHT22;67776;52.012;4.736;2023-05-15T04:29:30;10.70;87.98
78490;DHT22;67776;52.012;4.736;2023-05-15T04:31:56;10.77;87.50
78490;DHT22;67776;52.012;4.736;2023-05-15T04:34:21;10.81;87.89
78490;DHT22;67776;52.012;4.736;2023-05-15T04:36:47;10.87;87.28
78490;DHT22;67776;52.012;4.736;2023-05-15T04:39:12;10.95;87.62
78490;DHT22;67776;52.012;4.736;2023-05-15T04:41:37;10.97;87.01
78490;DHT22;67776;52.012;4.736;2023-05-15T04:44:03;10.97;88.25
78490;DHT22;67776;52.012;4.736;2023-05-15T04:46:28;11.04;87.69
78490;DHT22;67776;52.012;4.736;2023-05-15T04:48:53;11.12;87.36
78490;DHT22;67776;52.012;4.736;2023-05-15T04:51:19;11.12;86.53
78490;DHT22;67776;52.012;4.736;2023-05-15T04:53:44;11.18;86.47
78490;DHT22;67776;52.012;4.736;2023-05-15T04:56:09;11.07;86.68
78490;DHT22;67776;52.012;4.736;2023-05-15T04:58:35;11.11;87.82
78490;DHT22;67776;52.012;4.736;2023-05-15T05:01:00;11.22;87.41
78490;DHT22;67776;52.012;4.736;2023-05-15T05:03:26;11.26;86.64
78490;DHT22;67776;52.012;4.736;2023-05-15T05:05:51;11.38;87.05
78490;DHT22;67776;52.012;4.736;2023-05-15T05:08:16;11.36;87.33
78490;DHT22;67776;52.012;4.736;2023-05-15T05:10:41;11.46;85.66
78490;DHT22;67776;52.012;4.736;2023-05-15T05:13:07;11.49;86.55
78490;DHT22;67776;52.012;4.736;2023-05-15T05:15:32;11.50;86.10
78490;DHT22;67776;52.012;4.736;2023-05-15T05:17:57;11.55;86.24
78490;DHT22;67776;52.012;4.736;2023-05-15T05:20:23;11.60;84.80
78490;DHT22;67776;52.012;4.736;2023-05-15T05:22:48;11.59;85.82
78490;DHT22;67776;52.012;4.736;2023-05-15T05:25:13;11.62;85.04
78490;DHT22;67776;52.012;4.736;2023-05-15T05:27:39;11.59;83.76
78490;DHT22;67776;52.012;4.736;2023-05-15T05:30:05;11.49;86.13
78490;DHT22;67776;52.012;4.736;2023-05-15T05:32:30;11.53;84.85
78490;DHT22;67776;52.012;4.736;2023-05-15T05:34:55;11.52;86.01
78490;DHT22;67776;52.012;4.736;2023-05-15T05:37:21;11.42;85.25
78490;DHT22;67776;52.012;4.736;2023-05-15T05:39:46;11.52;86.26
78490;DHT22;67776;52.012;4.736;2023-05-15T05:42:11;11.55;85.64
78490;DHT22;67776;52.012;4.736;2023-05-15T05:44:37;11.52;86.08
78490;DHT22;67776;52.012;4.736;2023-05-15T05:47:02;11.73;86.67
78490;DHT22;67776;52.012;4.736;2023-05-15T05:49:27;11.69;84.55
78490;DHT22;67776;52.012;4.736;2023-05-15T05:51:53;11.80;84.35
78490;DHT22;67776;52.012;4.736;2023-05-15T05:54:18;11.98;84.97
78490;DHT22;67776;52.012;4.736;2023-05-15T05:56:43;11.98;84.38
78490;DHT22;67776;52.012;4.736;2023-05-15T05:59:09;12.01;85.08
78490;DHT22;67776;52.012;4.736;2023-05-15T06:01:34;12.02;84.13
78490;DHT22;67776;52.012;4.736;2023-05-15T06:04:00;11.95;85.31
78490;DHT22;67776;52.012;4.736;2023-05-15T06:06:25;12.21;84.00
78490;DHT22;67776;52.012;4.736;2023-05-15T06:08:51;12.38;83.64
78490;DHT22;67776;52.012;4.736;2023-05-15T06:11:16;12.38;83.89
78490;DHT22;67776;52.012;4.736;2023-05-15T06:13:41;12.50;83.32
78490;DHT22;67776;52.012;4.736;2023-05-15T06:16:07;12.50;82.94
78490;DHT22;67776;52.012;4.736;2023-05-15T06:18:33;12.50;83.58
78490;DHT22;67776;52.012;4.736;2023-05-15T06:20:58;12.49;83.78
78490;DHT22;67776;52.012;4.736;2023-05-15T06:23:25;12.66;82.97
78490;DHT22;67776;52.012;4.736;2023-05-15T06:25:50;12.69;84.28
78490;DHT22;67776;52.012;4.736;2023-05-15T06:28:16;12.73;83.06
78490;DHT22;67776;52.012;4.736;2023-05-15T06:30:41;12.79;82.98
78490;DHT22;67776;52.012;4.736;2023-05-15T06:33:06;12.80;82.85
78490;DHT22;67776;52.012;4.736;2023-05-15T06:35:32;12.81;82.52
78490;DHT22;67776;52.012;4.736;2023-05-15T06:37:57;12.64;82.24
78490;DHT22;67776;52.012;4.736;2023-05-15T06:40:22;12.83;82.28
78490;DHT22;67776;52.012;4.736;2023-05-15T06:42:48;12.84;82.69
78490;DHT22;67776;52.012;4.736;2023-05-15T06:45:13;13.00;81.74
78490;DHT22;67776;52.012;4.736;2023-05-15T06:47:38;12.93;81.32
78490;DHT22;67776;52.012;4.736;2023-05-15T06:50:04;12.94;83.28
78490;DHT22;67776;52.012;4.736;2023-05-15T06:52:30;12.98;81.16
78490;DHT22;67776;52.012;4.736;2023-05-15T06:54:55;12.75;82.12
78490;DHT22;67776;52.012;4.736;2023-05-15T06:57:20;12.77;84.20
78490;DHT22;67776;52.012;4.736;2023-05-15T06:59:46;13.01;82.94
78490;DHT22;67776;52.012;4.736;2023-05-15T07:02:11;13.28;82.08
78490;DHT22;67776;52.012;4.736;2023-05-15T07:04:36;13.49;81.15
78490;DHT22;67776;52.012;4.736;2023-05-15T07:07:02;13.49;81.98
78490;DHT22;67776;52.012;4.736;2023-05-15T07:09:27;13.63;82.12
78490;DHT22;67776;52.012;4.736;2023-05-15T07:11:52;13.74;79.67
78490;DHT22;67776;52.012;4.736;2023-05-15T07:14:18;13.52;80.35
78490;DHT22;67776;52.012;4.736;2023-05-15T07:16:43;13.39;81.95
78490;DHT22;67776;52.012;4.736;2023-05-15T07:19:09;13.29;81.91
78490;DHT22;67776;52.012;4.736;2023-05-15T07:21:35;13.08;81.90
78490;DHT22;67776;52.012;4.736;2023-05-15T07:24:01;13.38;82.40
78490;DHT22;67776;52.012;4.736;2023-05-15T07:26:26;13.42;79.99
78490;DHT22;67776;52.012;4.736;2023-05-15T07:28:51;13.26;80.97
78490;DHT22;67776;52.012;4.736;2023-05-15T07:31:16;13.38;81.10
78490;DHT22;67776;52.012;4.736;2023-05-15T07:33:42;13.39;79.91
78490;DHT22;67776;52.012;4.736;2023-05-15T07:36:07;13.25;81.52
78490;DHT22;67776;52.012;4.736;2023-05-15T07:38:33;13.26;82.10
78490;DHT22;67776;52.012;4.736;2023-05-15T07:40:58;13.41;81.52
78490;DHT22;67776;52.012;4.736;2023-05-15T07:43:23;13.41;82.17
78490;DHT22;67776;52.012;4.736;2023-05-15T07:45:48;13.43;82.70
78490;DHT22;67776;52.012;4.736;2023-05-15T07:48:15;13.46;81.59
78490;DHT22;67776;52.012;4.736;2023-05-15T07:50:41;13.42;81.70
78490;DHT22;67776;52.012;4.736;2023-05-15T07:53:07;13.48;82.38
78490;DHT22;67776;52.012;4.736;2023-05-15T07:55:32;13.52;80.69
78490;DHT22;67776;52.012;4.736;2023-05-15T07:57:57;13.60;80.20
78490;DHT22;67776;52.012;4.736;2023-05-15T08:00:23;13.45;81.39
78490;DHT22;67776;52.012;4.736;2023-05-15T08:02:48;13.28;80.83
78490;DHT22;67776;52.012;4.736;2023-05-15T08:05:14;13.39;81.58
78490;DHT22;67776;52.012;4.736;2023-05-15T08:07:39;13.38;81.57
78490;DHT22;67776;52.012;4.736;2023-05-15T08:10:06;13.39;82.45
78490;DHT22;67776;52.012;4.736;2023-05-15T08:12:31;13.48;81.58
78490;DHT22;67776;52.012;4.736;2023-05-15T08:14:57;13.46;81.25
78490;DHT22;67776;52.012;4.736;2023-05-15T08:17:23;13.49;82.06
78490;DHT22;67776;52.012;4.736;2023-05-15T08:19:49;13.66;81.64
78490;DHT22;67776;52.012;4.736;2023-05-15T08:22:18;13.59;81.12
78490;DHT22;67776;52.012;4.736;2023-05-15T08:24:44;13.59;82.24
78490;DHT22;67776;52.012;4.736;2023-05-15T08:27:09;13.69;81.58
78490;DHT22;67776;52.012;4.736;2023-05-15T08:29:35;13.60;82.34
78490;DHT22;67776;52.012;4.736;2023-05-15T08:32:01;13.66;82.64
78490;DHT22;67776;52.012;4.736;2023-05-15T08:34:27;13.73;80.36
78490;DHT22;67776;52.012;4.736;2023-05-15T08:36:53;13.53;81.03
78490;DHT22;67776;52.012;4.736;2023-05-15T08:39:20;13.65;82.53
78490;DHT22;67776;52.012;4.736;2023-05-15T08:44:11;13.81;82.09
78490;DHT22;67776;52.012;4.736;2023-05-15T08:46:37;13.88;81.10
78490;DHT22;67776;52.012;4.736;2023-05-15T08:49:10;13.91;79.71
78490;DHT22;67776;52.012;4.736;2023-05-15T08:51:36;13.88;80.02
78490;DHT22;67776;52.012;4.736;2023-05-15T08:54:02;13.91;80.81
78490;DHT22;67776;52.012;4.736;2023-05-15T08:56:28;13.81;82.40
78490;DHT22;67776;52.012;4.736;2023-05-15T08:58:53;13.86;83.34
78490;DHT22;67776;52.012;4.736;2023-05-15T09:01:19;13.83;80.88
78490;DHT22;67776;52.012;4.736;2023-05-15T09:03:45;13.78;81.37
78490;DHT22;67776;52.012;4.736;2023-05-15T09:06:10;13.77;82.12
78490;DHT22;67776;52.012;4.736;2023-05-15T09:08:36;13.76;82.48
78490;DHT22;67776;52.012;4.736;2023-05-15T09:11:03;13.80;81.71
78490;DHT22;67776;52.012;4.736;2023-05-15T09:13:29;13.80;81.52
78490;DHT22;67776;52.012;4.736;2023-05-15T09:15:55;13.81;83.12
78490;DHT22;67776;52.012;4.736;2023-05-15T09:18:21;13.87;81.46
78490;DHT22;67776;52.012;4.736;2023-05-15T09:20:46;13.80;83.42
78490;DHT22;67776;52.012;4.736;2023-05-15T09:23:25;13.66;84.26
78490;DHT22;67776;52.012;4.736;2023-05-15T09:25:51;13.83;82.68
78490;DHT22;67776;52.012;4.736;2023-05-15T09:28:31;13.83;82.73
78490;DHT22;67776;52.012;4.736;2023-05-15T09:30:59;13.78;82.37
78490;DHT22;67776;52.012;4.736;2023-05-15T09:33:33;13.84;82.54
78490;DHT22;67776;52.012;4.736;2023-05-15T09:35:59;13.97;81.67
78490;DHT22;67776;52.012;4.736;2023-05-15T09:38:25;13.88;83.14
78490;DHT22;67776;52.012;4.736;2023-05-15T09:41:03;13.97;82.34
78490;DHT22;67776;52.012;4.736;2023-05-15T09:43:32;13.84;82.69
78490;DHT22;67776;52.012;4.736;2023-05-15T09:45:58;13.90;83.89
78490;DHT22;67776;52.012;4.736;2023-05-15T09:48:24;13.87;82.68
78490;DHT22;67776;52.012;4.736;2023-05-15T09:50:50;14.00;82.89
78490;DHT22;67776;52.012;4.736;2023-05-15T09:53:15;13.83;83.24
78490;DHT22;67776;52.012;4.736;2023-05-15T09:55:41;14.11;82.36
78490;DHT22;67776;52.012;4.736;2023-05-15T09:58:15;14.35;81.17
78490;DHT22;67776;52.012;4.736;2023-05-15T10:00:44;14.22;81.86
78490;DHT22;67776;52.012;4.736;2023-05-15T10:03:10;14.20;80.81
78490;DHT22;67776;52.012;4.736;2023-05-15T10:05:36;14.25;81.10
78490;DHT22;67776;52.012;4.736;2023-05-15T10:08:05;14.33;80.79
78490;DHT22;67776;52.012;4.736;2023-05-15T10:10:31;14.39;79.98
78490;DHT22;67776;52.012;4.736;2023-05-15T10:13:00;14.66;81.62
78490;DHT22;67776;52.012;4.736;2023-05-15T10:15:30;14.81;81.68
78490;DHT22;67776;52.012;4.736;2023-05-15T10:17:56;14.63;81.36
78490;DHT22;67776;52.012;4.736;2023-05-15T10:20:23;14.72;80.80
78490;DHT22;67776;52.012;4.736;2023-05-15T10:22:51;14.72;81.24
78490;DHT22;67776;52.012;4.736;2023-05-15T10:28:18;14.53;80.29
78490;DHT22;67776;52.012;4.736;2023-05-15T10:30:45;14.36;79.24
78490;DHT22;67776;52.012;4.736;2023-05-15T10:33:11;14.29;80.15
78490;DHT22;67776;52.012;4.736;2023-05-15T10:35:38;14.17;79.68
78490;DHT22;67776;52.012;4.736;2023-05-15T10:38:05;13.88;81.64
78490;DHT22;67776;52.012;4.736;2023-05-15T10:40:31;14.24;81.60
78490;DHT22;67776;52.012;4.736;2023-05-15T10:42:58;14.62;78.98
78490;DHT22;67776;52.012;4.736;2023-05-15T10:45:24;14.87;79.75
78490;DHT22;67776;52.012;4.736;2023-05-15T10:47:50;14.90;77.32
78490;DHT22;67776;52.012;4.736;2023-05-15T10:50:16;14.91;78.47
78490;DHT22;67776;52.012;4.736;2023-05-15T10:52:42;15.07;78.46
78490;DHT22;67776;52.012;4.736;2023-05-15T10:55:12;14.93;79.42
78490;DHT22;67776;52.012;4.736;2023-05-15T10:57:37;15.20;80.00
78490;DHT22;67776;52.012;4.736;2023-05-15T11:00:23;15.41;76.20
78490;DHT22;67776;52.012;4.736;2023-05-15T11:02:50;15.51;75.65
78490;DHT22;67776;52.012;4.736;2023-05-15T11:05:18;15.38;74.81
78490;DHT22;67776;52.012;4.736;2023-05-15T11:07:43;15.51;74.92
78490;DHT22;67776;52.012;4.736;2023-05-15T11:12:57;15.55;76.35
78490;DHT22;67776;52.012;4.736;2023-05-15T11:15:23;15.62;75.90
78490;DHT22;67776;52.012;4.736;2023-05-15T11:18:05;15.48;75.47
78490;DHT22;67776;52.012;4.736;2023-05-15T11:20:41;15.45;75.93
78490;DHT22;67776;52.012;4.736;2023-05-15T11:23:07;15.63;77.21
78490;DHT22;67776;52.012;4.736;2023-05-15T11:25:34;15.74;76.31
78490;DHT22;67776;52.012;4.736;2023-05-15T11:28:01;15.71;76.92
78490;DHT22;67776;52.012;4.736;2023-05-15T11:30:38;15.79;74.65
78490;DHT22;67776;52.012;4.736;2023-05-15T11:33:09;15.31;77.83
78490;DHT22;67776;52.012;4.736;2023-05-15T11:35:40;15.17;76.30
78490;DHT22;67776;52.012;4.736;2023-05-15T11:38:36;14.98;77.11
78490;DHT22;67776;52.012;4.736;2023-05-15T11:41:16;15.30;76.51
78490;DHT22;67776;52.012;4.736;2023-05-15T11:43:41;15.18;76.25
78490;DHT22;67776;52.012;4.736;2023-05-15T11:46:08;15.34;76.45
78490;DHT22;67776;52.012;4.736;2023-05-15T11:48:38;15.12;75.38
78490;DHT22;67776;52.012;4.736;2023-05-15T11:51:04;14.87;76.92
78490;DHT22;67776;52.012;4.736;2023-05-15T11:53:32;14.84;78.15
78490;DHT22;67776;52.012;4.736;2023-05-15T11:55:57;14.90;78.29
78490;DHT22;67776;52.012;4.736;2023-05-15T11:58:24;14.75;78.44
78490;DHT22;67776;52.012;4.736;2023-05-15T12:00:51;14.79;78.33
78490;DHT22;67776;52.012;4.736;2023-05-15T12:03:17;14.63;79.27
78490;DHT22;67776;52.012;4.736;2023-05-15T12:05:44;14.60;78.04
78490;DHT22;67776;52.012;4.736;2023-05-15T12:08:11;14.62;78.22
78490;DHT22;67776;52.012;4.736;2023-05-15T12:10:41;14.52;79.09
78490;DHT22;67776;52.012;4.736;2023-05-15T12:13:07;14.46;78.90
78490;DHT22;67776;52.012;4.736;2023-05-15T12:15:36;14.48;78.21
78490;DHT22;67776;52.012;4.736;2023-05-15T12:18:02;14.50;78.57
78490;DHT22;67776;52.012;4.736;2023-05-15T12:20:27;14.39;78.63
78490;DHT22;67776;52.012;4.736;2023-05-15T12:22:53;14.35;80.61
78490;DHT22;67776;52.012;4.736;2023-05-15T12:25:18;14.24;80.38
78490;DHT22;67776;52.012;4.736;2023-05-15T12:27:43;14.42;78.00
78490;DHT22;67776;52.012;4.736;2023-05-15T12:30:09;14.48;77.77
78490;DHT22;67776;52.012;4.736;2023-05-15T12:32:36;14.41;77.32
78490;DHT22;67776;52.012;4.736;2023-05-15T12:35:02;14.31;78.64
78490;DHT22;67776;52.012;4.736;2023-05-15T12:37:32;14.11;80.33
78490;DHT22;67776;52.012;4.736;2023-05-15T12:40:00;14.25;78.80
78490;DHT22;67776;52.012;4.736;2023-05-15T12:42:26;14.31;78.37
78490;DHT22;67776;52.012;4.736;2023-05-15T12:44:53;14.26;79.39
78490;DHT22;67776;52.012;4.736;2023-05-15T12:47:23;14.14;79.37
78490;DHT22;67776;52.012;4.736;2023-05-15T12:49:48;14.11;78.42
78490;DHT22;67776;52.012;4.736;2023-05-15T12:52:14;14.15;79.44
78490;DHT22;67776;52.012;4.736;2023-05-15T12:54:40;14.15;77.82
78490;DHT22;67776;52.012;4.736;2023-05-15T12:57:10;14.28;77.66
78490;DHT22;67776;52.012;4.736;2023-05-15T12:59:35;14.88;77.34
78490;DHT22;67776;52.012;4.736;2023-05-15T13:02:02;15.00;75.54
78490;DHT22;67776;52.012;4.736;2023-05-15T13:04:27;15.07;75.90
78490;DHT22;67776;52.012;4.736;2023-05-15T13:06:53;14.81;76.97
78490;DHT22;67776;52.012;4.736;2023-05-15T13:09:21;14.75;77.07
78490;DHT22;67776;52.012;4.736;2023-05-15T13:11:47;14.65;75.73
78490;DHT22;67776;52.012;4.736;2023-05-15T13:14:16;14.58;75.26
78490;DHT22;67776;52.012;4.736;2023-05-15T13:16:43;14.38;77.72
78490;DHT22;67776;52.012;4.736;2023-05-15T13:19:09;14.22;76.99
78490;DHT22;67776;52.012;4.736;2023-05-15T13:21:35;14.31;76.78
78490;DHT22;67776;52.012;4.736;2023-05-15T13:24:01;14.15;77.88
78490;DHT22;67776;52.012;4.736;2023-05-15T13:26:26;14.21;78.28
78490;DHT22;67776;52.012;4.736;2023-05-15T13:28:51;14.22;77.43
78490;DHT22;67776;52.012;4.736;2023-05-15T13:31:17;14.17;77.07
78490;DHT22;67776;52.012;4.736;2023-05-15T13:33:42;13.96;78.55
78490;DHT22;67776;52.012;4.736;2023-05-15T13:36:07;14.05;77.07
78490;DHT22;67776;52.012;4.736;2023-05-15T13:38:33;14.05;76.90
78490;DHT22;67776;52.012;4.736;2023-05-15T13:40:58;14.00;77.94
78490;DHT22;67776;52.012;4.736;2023-05-15T13:43:23;13.93;77.56
78490;DHT22;67776;52.012;4.736;2023-05-15T13:45:49;13.83;77.40
78490;DHT22;67776;52.012;4.736;2023-05-15T13:48:14;13.94;77.74
78490;DHT22;67776;52.012;4.736;2023-05-15T13:50:40;13.84;77.77
78490;DHT22;67776;52.012;4.736;2023-05-15T13:53:07;13.78;76.92
78490;DHT22;67776;52.012;4.736;2023-05-15T13:55:32;13.65;79.75
78490;DHT22;67776;52.012;4.736;2023-05-15T13:57:58;13.74;78.03
78490;DHT22;67776;52.012;4.736;2023-05-15T14:00:24;13.69;78.19
78490;DHT22;67776;52.012;4.736;2023-05-15T14:02:49;13.49;78.37
78490;DHT22;67776;52.012;4.736;2023-05-15T14:05:15;13.58;78.05
78490;DHT22;67776;52.012;4.736;2023-05-15T14:07:41;13.58;77.89
78490;DHT22;67776;52.012;4.736;2023-05-15T14:10:07;13.69;78.41
78490;DHT22;67776;52.012;4.736;2023-05-15T14:12:33;13.88;77.29
78490;DHT22;67776;52.012;4.736;2023-05-15T14:14:59;13.69;78.40
78490;DHT22;67776;52.012;4.736;2023-05-15T14:17:24;13.90;77.03
78490;DHT22;67776;52.012;4.736;2023-05-15T14:19:51;13.90;78.04
78490;DHT22;67776;52.012;4.736;2023-05-15T14:22:17;13.74;79.00
78490;DHT22;67776;52.012;4.736;2023-05-15T14:24:43;13.81;77.97
78490;DHT22;67776;52.012;4.736;2023-05-15T14:27:09;13.93;77.39
78490;DHT22;67776;52.012;4.736;2023-05-15T14:29:34;13.77;77.82
78490;DHT22;67776;52.012;4.736;2023-05-15T14:31:59;13.71;77.39
78490;DHT22;67776;52.012;4.736;2023-05-15T14:34:25;13.74;78.02
78490;DHT22;67776;52.012;4.736;2023-05-15T14:36:51;13.69;79.01
78490;DHT22;67776;52.012;4.736;2023-05-15T14:39:16;13.60;77.55
78490;DHT22;67776;52.012;4.736;2023-05-15T14:41:43;13.62;78.25
78490;DHT22;67776;52.012;4.736;2023-05-15T14:44:08;13.62;79.83
78490;DHT22;67776;52.012;4.736;2023-05-15T14:46:34;13.74;77.74
78490;DHT22;67776;52.012;4.736;2023-05-15T14:49:03;13.70;78.05
78490;DHT22;67776;52.012;4.736;2023-05-15T14:51:30;13.55;78.13
78490;DHT22;67776;52.012;4.736;2023-05-15T14:53:55;13.50;78.68
78490;DHT22;67776;52.012;4.736;2023-05-15T14:56:21;13.52;78.59
78490;DHT22;67776;52.012;4.736;2023-05-15T14:58:48;13.46;79.81
78490;DHT22;67776;52.012;4.736;2023-05-15T15:01:14;13.52;78.07
78490;DHT22;67776;52.012;4.736;2023-05-15T15:03:39;13.65;78.43
78490;DHT22;67776;52.012;4.736;2023-05-15T15:06:06;13.73;77.53
78490;DHT22;67776;52.012;4.736;2023-05-15T15:08:32;13.65;77.49
78490;DHT22;67776;52.012;4.736;2023-05-15T15:10:57;13.58;78.63
78490;DHT22;67776;52.012;4.736;2023-05-15T15:13:22;13.45;78.50
78490;DHT22;67776;52.012;4.736;2023-05-15T15:15:49;13.43;78.48
78490;DHT22;67776;52.012;4.736;2023-05-15T15:18:15;13.42;81.21
78490;DHT22;67776;52.012;4.736;2023-05-15T15:20:40;13.55;78.93
78490;DHT22;67776;52.012;4.736;2023-05-15T15:23:06;13.58;78.92
78490;DHT22;67776;52.012;4.736;2023-05-15T15:25:32;13.62;78.67
78490;DHT22;67776;52.012;4.736;2023-05-15T15:27:57;13.62;78.44
78490;DHT22;67776;52.012;4.736;2023-05-15T15:30:22;13.58;78.10
78490;DHT22;67776;52.012;4.736;2023-05-15T15:32:48;13.41;78.84
78490;DHT22;67776;52.012;4.736;2023-05-15T15:35:13;13.22;78.21
78490;DHT22;67776;52.012;4.736;2023-05-15T15:37:39;13.24;79.36
78490;DHT22;67776;52.012;4.736;2023-05-15T15:40:05;13.19;79.01
78490;DHT22;67776;52.012;4.736;2023-05-15T15:42:34;13.12;79.87
78490;DHT22;67776;52.012;4.736;2023-05-15T15:44:59;13.14;80.46